Time;durP1;ratioP1;P1;durP2;ratioP2;P2;SDS_P1;SDS_P2;PMS_P1;PMS_P2;Temp;Humidity;BMP_temperature;BMP_pressure;BME280_temperature;BME280_humidity;BME280_pressure;Samples;Min_cycle;Max_cycle;Signal;HPM_P1;HPM_P2
2023/08/19 03:00:36;;;;;;;2.50;2.30;;;25.30;60.60;;;;;;5817817;23;46011;-87
2023/08/19 03:03:02;;;;;;;2.75;2.55;;;25.30;60.70;;;;;;4817038;29;46280;-86
2023/08/19 03:05:28;;;;;;;2.53;2.33;;;25.30;60.70;;;;;;4810662;29;45308;-85
2023/08/19 03:07:53;;;;;;;2.75;2.17;;;25.30;60.70;;;;;;4846079;29;45267;-83
2023/08/19 03:10:19;;;;;;;2.53;2.33;;;25.30;60.60;;;;;;4841121;28;44994;-86
2023/08/19 03:12:45;;;;;;;3.17;2.88;;;25.30;60.60;;;;;;4830014;29;47144;-83
2023/08/19 03:15:10;;;;;;;2.97;2.55;;;25.30;60.60;;;;;;4856997;28;45055;-86
2023/08/19 03:17:36;;;;;;;2.95;2.70;;;25.30;60.60;;;;;;4821359;29;45174;-84
2023/08/19 03:20:02;;;;;;;2.85;2.55;;;25.30;60.70;;;;;;4845289;29;45112;-83
2023/08/19 03:22:27;;;;;;;2.92;2.72;;;25.30;60.60;;;;;;4875934;28;46354;-84
2023/08/19 03:24:53;;;;;;;2.83;2.63;;;25.30;60.60;;;;;;4828222;29;44955;-84
2023/08/19 03:27:18;;;;;;;2.80;2.53;;;25.30;60.60;;;;;;4840951;28;45478;-84
2023/08/19 03:29:44;;;;;;;2.85;2.65;;;25.30;60.60;;;;;;4856967;28;45974;-83
2023/08/19 03:32:09;;;;;;;2.90;2.70;;;25.30;60.70;;;;;;4839411;29;47137;-83
2023/08/19 03:34:35;;;;;;;5.00;2.47;;;25.30;60.60;;;;;;4858458;28;44887;-83
2023/08/19 03:37:00;;;;;;;3.15;2.85;;;25.30;60.60;;;;;;4830723;28;44883;-84
2023/08/19 03:39:26;;;;;;;2.70;2.47;;;25.30;60.60;;;;;;4860073;29;45283;-82
2023/08/19 03:41:51;;;;;;;2.60;2.40;;;25.30;60.60;;;;;;4855435;29;45310;-83
2023/08/19 03:44:17;;;;;;;2.80;2.60;;;25.30;60.60;;;;;;4823506;29;45241;-83
2023/08/19 03:46:43;;;;;;;2.50;2.30;;;25.30;60.60;;;;;;4840667;29;44960;-86
2023/08/19 03:49:08;;;;;;;2.78;2.58;;;25.30;60.60;;;;;;4850145;28;44882;-84
2023/08/19 03:51:34;;;;;;;4.22;3.00;;;25.30;60.60;;;;;;4856375;29;45178;-83
2023/08/19 03:53:59;;;;;;;2.58;2.38;;;25.30;60.60;;;;;;4881826;28;45242;-84
2023/08/19 03:56:25;;;;;;;2.70;2.50;;;25.30;60.60;;;;;;4836871;29;45059;-86
2023/08/19 03:58:53;;;;;;;2.90;2.50;;;25.30;60.60;;;;;;4835284;29;45381;-82
2023/08/19 04:01:19;;;;;;;2.55;2.35;;;25.30;60.60;;;;;;4839928;29;45301;-83
2023/08/19 04:03:44;;;;;;;2.88;2.60;;;25.30;60.50;;;;;;4859649;29;44645;-83
2023/08/19 04:06:11;;;;;;;2.50;2.30;;;25.30;60.50;;;;;;4840686;29;44884;-85
2023/08/19 04:08:36;;;;;;;2.80;2.60;;;25.30;60.50;;;;;;4870829;28;44665;-85
2023/08/19 04:11:08;;;;;;;3.10;2.80;;;25.30;60.50;;;;;;4844507;29;45922;-83
2023/08/19 04:13:34;;;;;;;2.67;2.43;;;25.30;60.40;;;;;;4880404;28;45150;-83
2023/08/19 04:16:04;;;;;;;3.30;2.38;;;25.30;60.50;;;;;;4842569;29;45355;-86
2023/08/19 04:18:30;;;;;;;2.75;2.55;;;25.30;60.50;;;;;;4827158;29;45069;-81
2023/08/19 04:20:56;;;;;;;2.67;2.47;;;25.30;60.50;;;;;;4840637;28;47409;-83
2023/08/19 04:23:21;;;;;;;2.70;2.50;;;25.30;60.50;;;;;;4852662;28;44720;-84
2023/08/19 04:25:47;;;;;;;3.20;2.88;;;25.30;60.50;;;;;;4876991;28;45103;-84
2023/08/19 04:28:14;;;;;;;2.85;2.63;;;25.30;60.50;;;;;;4876433;28;44802;-83
2023/08/19 04:30:40;;;;;;;2.92;2.60;;;25.30;60.50;;;;;;4868478;28;47835;-87
2023/08/19 04:33:06;;;;;;;4.70;2.92;;;25.30;60.50;;;;;;4882224;28;45243;-83
2023/08/19 04:35:31;;;;;;;2.65;2.45;;;25.20;60.40;;;;;;4873617;28;45021;-82
2023/08/19 04:37:57;;;;;;;3.55;2.63;;;25.20;60.40;;;;;;4878408;28;45016;-83
2023/08/19 04:40:23;;;;;;;2.90;2.67;;;25.30;60.40;;;;;;4863646;28;47141;-82
2023/08/19 04:42:48;;;;;;;2.60;2.40;;;25.20;60.40;;;;;;4892080;28;45089;-82
2023/08/19 04:45:16;;;;;;;2.90;2.70;;;25.20;60.40;;;;;;4870125;28;45225;-86
2023/08/19 04:47:41;;;;;;;3.03;2.78;;;25.20;60.40;;;;;;4876570;28;45590;-83
2023/08/19 04:50:08;;;;;;;2.97;2.60;;;25.30;60.40;;;;;;4896462;28;46353;-86
2023/08/19 04:52:37;;;;;;;3.17;2.83;;;25.20;60.40;;;;;;4882952;28;45118;-82
2023/08/19 04:55:06;;;;;;;3.00;2.70;;;25.20;60.30;;;;;;4877383;28;45249;-89
2023/08/19 04:57:32;;;;;;;2.60;2.40;;;25.20;60.30;;;;;;4847228;28;45201;-82
2023/08/19 04:59:57;;;;;;;3.00;2.50;;;25.20;60.30;;;;;;4883651;28;47659;-83
2023/08/19 05:02:23;;;;;;;3.00;2.70;;;25.20;60.30;;;;;;4887700;28;45232;-82
2023/08/19 05:04:49;;;;;;;3.00;2.80;;;25.20;60.30;;;;;;4881376;29;44674;-83
2023/08/19 05:07:14;;;;;;;3.65;2.60;;;25.20;60.30;;;;;;4841233;28;45151;-83
2023/08/19 05:09:40;;;;;;;3.28;2.47;;;25.30;60.40;;;;;;4870685;28;46580;-83
2023/08/19 05:12:06;;;;;;;3.08;2.67;;;25.20;60.30;;;;;;4872601;29;45045;-83
2023/08/19 05:14:32;;;;;;;3.17;2.88;;;25.20;60.30;;;;;;4874250;28;45073;-82
2023/08/19 05:16:57;;;;;;;2.40;2.20;;;25.20;60.30;;;;;;4876319;28;45157;-82
2023/08/19 05:19:24;;;;;;;2.75;2.20;;;25.20;60.30;;;;;;4846480;29;46450;-83
2023/08/19 05:21:50;;;;;;;2.63;2.42;;;25.20;60.30;;;;;;4870765;28;45027;-83
2023/08/19 05:24:16;;;;;;;3.15;2.92;;;25.20;60.30;;;;;;4842937;29;45862;-83
2023/08/19 05:26:44;;;;;;;2.70;2.50;;;25.20;60.30;;;;;;4873906;28;45365;-82
2023/08/19 05:29:10;;;;;;;2.58;2.38;;;25.20;60.30;;;;;;4877490;29;45383;-82
2023/08/19 05:31:36;;;;;;;2.60;2.40;;;25.20;60.30;;;;;;4855000;28;44909;-83
2023/08/19 05:34:01;;;;;;;2.42;2.22;;;25.20;60.30;;;;;;4875353;28;44901;-85
2023/08/19 05:36:27;;;;;;;3.47;2.33;;;25.20;60.30;;;;;;4858496;29;45239;-83
2023/08/19 05:38:53;;;;;;;2.70;2.50;;;25.20;60.30;;;;;;4863653;29;47411;-81
2023/08/19 05:41:18;;;;;;;2.95;2.63;;;25.20;60.30;;;;;;4873096;29;44715;-82
2023/08/19 05:43:44;;;;;;;2.40;2.20;;;25.20;60.20;;;;;;4873795;29;45150;-83
2023/08/19 05:46:09;;;;;;;3.17;2.40;;;25.20;60.20;;;;;;4880040;28;45264;-83
2023/08/19 05:48:35;;;;;;;3.13;2.50;;;25.20;60.20;;;;;;4854974;28;47201;-83
2023/08/19 05:51:01;;;;;;;4.32;2.72;;;25.20;60.20;;;;;;4873913;28;45208;-82
2023/08/19 05:53:27;;;;;;;2.97;2.70;;;25.20;60.20;;;;;;4864613;28;44946;-85
2023/08/19 05:55:52;;;;;;;2.92;2.72;;;25.20;60.30;;;;;;4877340;28;45034;-83
2023/08/19 05:58:18;;;;;;;3.40;2.53;;;25.20;60.20;;;;;;4858647;28;45581;-82
2023/08/19 06:00:44;;;;;;;2.92;2.60;;;25.20;60.20;;;;;;4872541;28;46267;-83
2023/08/19 06:03:09;;;;;;;2.83;2.55;;;25.20;60.20;;;;;;4895782;28;44710;-83
2023/08/19 06:05:35;;;;;;;2.50;2.30;;;25.20;60.20;;;;;;4874908;28;44736;-82
2023/08/19 06:08:01;;;;;;;3.50;2.50;;;25.20;60.20;;;;;;4877224;28;46783;-82
2023/08/19 06:10:30;;;;;;;3.03;2.17;;;25.20;60.20;;;;;;4859776;28;45027;-88
2023/08/19 06:12:56;;;;;;;2.58;2.38;;;25.20;60.20;;;;;;4864546;28;44902;-83
2023/08/19 06:15:22;;;;;;;2.67;2.17;;;25.20;60.30;;;;;;4891038;28;45298;-83
2023/08/19 06:17:48;;;;;;;3.60;2.58;;;25.20;60.30;;;;;;4893712;28;46473;-83
2023/08/19 06:20:13;;;;;;;2.85;2.45;;;25.20;60.30;;;;;;4895279;28;45235;-86
2023/08/19 06:22:39;;;;;;;2.47;2.25;;;25.20;60.20;;;;;;4860599;29;45289;-82
2023/08/19 06:25:08;;;;;;;2.65;2.45;;;25.20;60.20;;;;;;4880216;28;45134;-88
2023/08/19 06:27:34;;;;;;;2.22;2.03;;;25.20;60.20;;;;;;4862774;28;47044;-81
2023/08/19 06:30:00;;;;;;;2.50;2.30;;;25.20;60.20;;;;;;4895315;28;44970;-84
2023/08/19 06:32:26;;;;;;;2.95;2.63;;;25.20;60.20;;;;;;4849134;28;45219;-83
2023/08/19 06:34:51;;;;;;;2.70;2.50;;;25.20;60.20;;;;;;4881699;28;44811;-82
2023/08/19 06:37:22;;;;;;;2.28;2.10;;;25.20;60.20;;;;;;4847085;28;48171;-82
2023/08/19 06:39:48;;;;;;;2.60;2.30;;;25.20;60.30;;;;;;4876412;29;45019;-83
2023/08/19 06:42:15;;;;;;;2.33;2.13;;;25.20;60.20;;;;;;4874969;28;45324;-82
2023/08/19 06:44:40;;;;;;;2.60;2.35;;;25.20;60.20;;;;;;4864837;29;45958;-86
2023/08/19 06:47:07;;;;;;;4.47;2.30;;;25.20;60.20;;;;;;4868952;29;45616;-82
2023/08/19 06:49:34;;;;;;;3.95;2.40;;;25.20;60.20;;;;;;4877073;28;45181;-81
2023/08/19 06:51:59;;;;;;;2.80;2.17;;;25.20;60.20;;;;;;4874574;28;44907;-82
2023/08/19 06:54:25;;;;;;;2.67;2.47;;;25.20;60.20;;;;;;4876621;28;45093;-82
2023/08/19 06:57:07;;;;;;;2.55;2.35;;;25.20;60.20;;;;;;4890915;28;45447;-82
2023/08/19 06:59:36;;;;;;;3.00;2.60;;;25.20;60.20;;;;;;4879364;28;44865;-82
2023/08/19 07:02:04;;;;;;;2.83;2.63;;;25.20;60.20;;;;;;4857524;28;45450;-83
2023/08/19 07:04:30;;;;;;;2.60;2.40;;;25.20;60.20;;;;;;4855944;28;45033;-82
2023/08/19 07:07:01;;;;;;;2.60;2.40;;;25.20;60.20;;;;;;4823872;28;47542;-83
2023/08/19 07:09:27;;;;;;;2.83;1.92;;;25.20;60.10;;;;;;4856494;28;45014;-83
2023/08/19 07:11:53;;;;;;;3.45;2.90;;;25.20;60.20;;;;;;4856823;28;44951;-81
2023/08/19 07:14:19;;;;;;;2.63;2.42;;;25.10;60.10;;;;;;4852766;28;45501;-83
2023/08/19 07:16:49;;;;;;;2.95;2.67;;;25.20;60.20;;;;;;4846985;28;46684;-82
2023/08/19 07:19:16;;;;;;;2.78;2.30;;;25.20;60.10;;;;;;4838908;28;44867;-83
2023/08/19 07:21:44;;;;;;;2.55;2.35;;;25.20;60.20;;;;;;4840189;28;46290;-83
2023/08/19 07:24:10;;;;;;;2.72;2.53;;;25.10;60.10;;;;;;4866427;28;45052;-81
2023/08/19 07:26:36;;;;;;;2.53;2.33;;;25.20;60.20;;;;;;4858742;28;45926;-82
2023/08/19 07:29:02;;;;;;;2.72;2.50;;;25.10;60.10;;;;;;4841175;29;44963;-82
2023/08/19 07:31:27;;;;;;;3.90;2.50;;;25.20;60.20;;;;;;4845333;28;45042;-81
2023/08/19 07:33:56;;;;;;;2.58;2.38;;;25.20;60.20;;;;;;4847724;28;45450;-82
2023/08/19 07:36:22;;;;;;;2.60;2.40;;;25.10;60.10;;;;;;4841681;28;47008;-81
2023/08/19 07:38:48;;;;;;;4.35;2.50;;;25.20;60.20;;;;;;4845137;28;45508;-82
2023/08/19 07:41:14;;;;;;;2.40;2.20;;;25.10;60.10;;;;;;4856162;28;44690;-82
2023/08/19 07:43:40;;;;;;;3.13;2.58;;;25.10;60.10;;;;;;4832481;28;44774;-81
2023/08/19 07:46:05;;;;;;;2.60;2.40;;;25.20;60.20;;;;;;4871091;28;45058;-82
2023/08/19 07:48:31;;;;;;;2.58;2.20;;;25.20;60.20;;;;;;4824209;28;45272;-82
2023/08/19 07:50:57;;;;;;;2.25;2.05;;;25.10;60.10;;;;;;4838145;29;45053;-85
2023/08/19 07:53:23;;;;;;;2.20;2.00;;;25.10;60.10;;;;;;4849712;28;45325;-81
2023/08/19 07:55:49;;;;;;;2.80;2.53;;;25.20;60.10;;;;;;4844450;28;45137;-83
2023/08/19 07:58:14;;;;;;;2.70;2.50;;;25.10;60.10;;;;;;4882834;28;44736;-81
2023/08/19 08:00:40;;;;;;;2.70;2.50;;;25.10;60.10;;;;;;4854755;28;44993;-87
2023/08/19 08:03:06;;;;;;;2.92;2.67;;;25.10;60.00;;;;;;4848332;28;45374;-82
2023/08/19 08:05:32;;;;;;;2.85;2.55;;;25.20;60.10;;;;;;4867161;28;47229;-83
2023/08/19 08:07:58;;;;;;;3.45;2.40;;;25.20;60.10;;;;;;4882913;28;45851;-82
2023/08/19 08:10:24;;;;;;;2.35;2.15;;;25.20;60.10;;;;;;4870419;28;44744;-82
2023/08/19 08:12:49;;;;;;;2.60;2.40;;;25.20;60.10;;;;;;4862385;29;44703;-81
2023/08/19 08:15:15;;;;;;;3.00;2.53;;;25.20;60.10;;;;;;4875819;28;46965;-82
2023/08/19 08:17:45;;;;;;;2.50;2.30;;;25.20;60.10;;;;;;4876394;28;44897;-82
2023/08/19 08:20:10;;;;;;;2.53;2.33;;;25.20;60.10;;;;;;4875567;28;44861;-82
2023/08/19 08:22:36;;;;;;;2.63;2.42;;;25.20;60.10;;;;;;4866167;28;45019;-82
2023/08/19 08:25:05;;;;;;;2.53;2.33;;;25.20;60.10;;;;;;4885449;28;46221;-83
2023/08/19 08:27:34;;;;;;;2.75;2.40;;;25.20;60.10;;;;;;4863379;28;44942;-82
2023/08/19 08:30:00;;;;;;;2.70;2.50;;;25.20;60.10;;;;;;4880883;28;45111;-86
2023/08/19 08:32:25;;;;;;;2.42;2.22;;;25.20;60.10;;;;;;4863399;28;44991;-83
2023/08/19 08:34:51;;;;;;;2.38;2.17;;;25.20;60.10;;;;;;4864699;28;46957;-81
2023/08/19 08:37:16;;;;;;;2.33;2.13;;;25.20;60.10;;;;;;4848645;28;45381;-81
2023/08/19 08:39:42;;;;;;;2.20;2.00;;;25.20;60.10;;;;;;4879513;28;44863;-81
2023/08/19 08:42:08;;;;;;;2.67;2.40;;;25.20;60.10;;;;;;4864826;28;45125;-82
2023/08/19 08:44:34;;;;;;;2.40;2.20;;;25.20;60.10;;;;;;4878705;28;46389;-83
2023/08/19 08:47:00;;;;;;;2.50;2.30;;;25.20;60.00;;;;;;4872539;28;45229;-83
2023/08/19 08:49:27;;;;;;;4.13;2.33;;;25.20;60.10;;;;;;4892056;28;44708;-84
2023/08/19 08:51:53;;;;;;;2.42;2.17;;;25.20;60.10;;;;;;4886081;28;46197;-83
2023/08/19 08:54:19;;;;;;;2.63;2.40;;;25.20;60.10;;;;;;4877488;28;45412;-83
2023/08/19 08:56:45;;;;;;;3.08;2.78;;;25.20;60.10;;;;;;4876706;28;44611;-83
2023/08/19 08:59:10;;;;;;;2.88;2.47;;;25.20;60.10;;;;;;4861643;28;44831;-83
2023/08/19 09:01:36;;;;;;;2.50;2.30;;;25.20;60.10;;;;;;4865436;28;45112;-83
2023/08/19 09:04:04;;;;;;;2.47;2.28;;;25.20;60.10;;;;;;4876251;28;44920;-83
2023/08/19 09:06:30;;;;;;;2.38;2.17;;;25.20;60.10;;;;;;4886778;28;44975;-84
2023/08/19 09:09:04;;;;;;;2.53;2.30;;;25.20;60.10;;;;;;4869252;28;45266;-83
2023/08/19 09:11:34;;;;;;;2.67;2.47;;;25.20;60.00;;;;;;4869957;28;44991;-83
2023/08/19 09:14:21;;;;;;;2.40;2.20;;;25.20;60.00;;;;;;4886815;28;47338;-81
2023/08/19 09:16:46;;;;;;;2.50;2.13;;;25.20;60.00;;;;;;4874130;28;45190;-85
2023/08/19 09:19:13;;;;;;;2.70;2.50;;;25.20;60.10;;;;;;4880258;28;45111;-82
2023/08/19 09:21:39;;;;;;;2.33;2.13;;;25.20;60.00;;;;;;4836826;28;45605;-84
2023/08/19 09:24:05;;;;;;;2.15;2.03;;;25.20;60.10;;;;;;4887669;28;46060;-86
2023/08/19 09:26:30;;;;;;;2.35;1.95;;;25.20;60.00;;;;;;4874405;29;45147;-80
2023/08/19 09:28:57;;;;;;;2.88;2.45;;;25.20;60.10;;;;;;4878389;28;45152;-83
2023/08/19 09:31:24;;;;;;;2.50;2.28;;;25.20;60.10;;;;;;4859012;28;45581;-83
2023/08/19 09:33:53;;;;;;;2.42;2.10;;;25.20;60.80;;;;;;4888754;28;45269;-83
2023/08/19 09:36:22;;;;;;;2.45;2.25;;;25.20;60.10;;;;;;4861128;28;45254;-83
2023/08/19 09:38:54;;;;;;;2.45;2.20;;;25.20;60.10;;;;;;4870297;28;45304;-82
2023/08/19 09:41:20;;;;;;;1.90;1.80;;;25.20;60.10;;;;;;4857966;28;45764;-83
2023/08/19 09:43:46;;;;;;;2.38;2.17;;;25.20;60.10;;;;;;4877028;28;45953;-83
2023/08/19 09:46:14;;;;;;;2.50;2.30;;;25.20;60.10;;;;;;4876284;28;45139;-81
2023/08/19 09:48:39;;;;;;;2.28;2.08;;;25.30;60.10;;;;;;4891905;28;44963;-81
2023/08/19 09:51:08;;;;;;;2.53;2.20;;;25.30;60.10;;;;;;4877732;28;44764;-85
2023/08/19 09:53:36;;;;;;;2.20;2.00;;;25.30;60.10;;;;;;4866275;29;45360;-81
2023/08/19 09:56:02;;;;;;;2.10;1.90;;;25.30;60.20;;;;;;4864278;28;45597;-81
2023/08/19 09:58:28;;;;;;;2.53;2.30;;;25.30;60.20;;;;;;4898836;28;44820;-80
2023/08/19 10:00:53;;;;;;;2.90;2.60;;;25.30;60.20;;;;;;4839993;28;45172;-81
2023/08/19 10:03:19;;;;;;;2.47;2.28;;;25.30;60.20;;;;;;4858101;28;46700;-84
2023/08/19 10:05:48;;;;;;;2.40;2.20;;;25.30;60.10;;;;;;4877204;28;45007;-82
2023/08/19 10:08:19;;;;;;;2.40;2.20;;;25.30;60.20;;;;;;4870375;28;45096;-80
2023/08/19 10:10:45;;;;;;;2.58;2.38;;;25.30;60.10;;;;;;4878877;28;45246;-83
2023/08/19 10:13:12;;;;;;;2.25;2.08;;;25.30;60.20;;;;;;4894379;28;46711;-80
2023/08/19 10:15:40;;;;;;;2.53;2.33;;;25.30;60.20;;;;;;4891526;28;45203;-84
2023/08/19 10:18:19;;;;;;;2.33;2.05;;;25.30;60.10;;;;;;4882952;28;45172;-86
2023/08/19 10:20:47;;;;;;;2.60;2.03;;;25.30;60.20;;;;;;4874295;28;45075;-82
2023/08/19 10:23:13;;;;;;;2.60;2.40;;;25.30;60.20;;;;;;4881794;28;46787;-82
2023/08/19 10:25:41;;;;;;;2.08;1.95;;;25.30;60.20;;;;;;4876289;28;45059;-85
2023/08/19 10:31:09;;;;;;;2.22;2.03;;;25.30;60.20;;;;;;4890660;28;45127;-84
2023/08/19 10:33:39;;;;;;;2.35;2.15;;;25.30;60.20;;;;;;4862558;28;47463;-82
2023/08/19 10:36:09;;;;;;;1.77;1.67;;;25.30;60.20;;;;;;4882523;28;46849;-83
2023/08/19 10:38:54;;;;;;;2.38;2.17;;;25.30;60.20;;;;;;4879865;28;45273;-83
2023/08/19 10:41:33;;;;;;;2.10;1.90;;;25.30;60.20;;;;;;4874002;28;45106;-81
2023/08/19 10:44:10;;;;;;;2.17;1.98;;;25.40;60.30;;;;;;4865312;28;46092;-82
2023/08/19 10:46:37;;;;;;;2.03;1.83;;;25.30;60.20;;;;;;4875123;28;44979;-82
2023/08/19 10:49:04;;;;;;;2.53;2.10;;;25.40;60.30;;;;;;4878284;28;45363;-81
2023/08/19 10:51:59;;;;;;;1.95;1.83;;;25.30;61.00;;;;;;4862108;29;45031;-86
2023/08/19 10:54:45;;;;;;;2.05;1.90;;;25.40;61.00;;;;;;4866852;28;47077;-81
2023/08/19 10:57:11;;;;;;;2.22;2.03;;;25.40;60.40;;;;;;4863706;28;45067;-81
2023/08/19 10:59:38;;;;;;;2.20;2.00;;;25.30;60.20;;;;;;4881528;28;45107;-82
2023/08/19 11:02:04;;;;;;;2.08;1.92;;;25.40;60.30;;;;;;4855901;28;45890;-81
2023/08/19 11:04:31;;;;;;;2.03;1.83;;;25.40;60.30;;;;;;4883574;28;47441;-80
2023/08/19 11:06:57;;;;;;;2.92;2.28;;;25.40;60.30;;;;;;4891661;28;44743;-83
2023/08/19 11:09:28;;;;;;;2.17;1.95;;;25.40;60.30;;;;;;4899552;28;45157;-84
2023/08/19 11:11:57;;;;;;;2.00;1.90;;;25.30;60.20;;;;;;4875528;28;45286;-80
2023/08/19 11:14:23;;;;;;;2.17;1.95;;;25.40;60.40;;;;;;4899698;28;45224;-84
2023/08/19 11:16:53;;;;;;;2.33;2.13;;;25.40;60.40;;;;;;4875906;28;45119;-83
2023/08/19 11:19:19;;;;;;;2.05;1.85;;;25.40;60.40;;;;;;4878178;28;45317;-82
2023/08/19 11:21:45;;;;;;;1.73;1.63;;;25.40;60.40;;;;;;4840576;28;44766;-83
2023/08/19 11:24:11;;;;;;;2.13;1.92;;;25.40;60.40;;;;;;4870573;28;46919;-89
2023/08/19 11:26:38;;;;;;;2.20;2.00;;;25.40;60.40;;;;;;4879375;28;44875;-83
2023/08/19 11:29:07;;;;;;;3.67;2.05;;;25.40;60.40;;;;;;4901078;28;45120;-84
2023/08/19 11:31:36;;;;;;;2.40;2.20;;;25.40;60.40;;;;;;4861006;28;44713;-82
2023/08/19 11:34:12;;;;;;;2.38;2.13;;;25.40;60.40;;;;;;4882906;28;46388;-84
2023/08/19 11:36:38;;;;;;;2.03;1.92;;;25.40;60.40;;;;;;4859897;28;45186;-82
2023/08/19 11:39:04;;;;;;;2.00;1.90;;;25.40;60.40;;;;;;4880787;28;45031;-81
2023/08/19 11:41:30;;;;;;;2.13;1.92;;;25.40;60.40;;;;;;4884584;28;46031;-83
2023/08/19 11:43:57;;;;;;;2.22;2.00;;;25.40;60.40;;;;;;4869791;28;47306;-85
2023/08/19 11:46:27;;;;;;;1.60;1.50;;;25.40;60.40;;;;;;4877536;28;45691;-81
2023/08/19 11:48:52;;;;;;;3.00;1.80;;;25.40;60.40;;;;;;4877014;28;44798;-84
2023/08/19 11:51:19;;;;;;;1.90;1.80;;;25.40;60.40;;;;;;4893695;28;44885;-82
2023/08/19 11:53:48;;;;;;;2.72;1.90;;;25.40;60.40;;;;;;4863783;28;47726;-80
2023/08/19 11:56:13;;;;;;;2.05;1.85;;;25.40;60.40;;;;;;4875199;28;45461;-82
2023/08/19 11:58:39;;;;;;;2.10;1.90;;;25.40;60.40;;;;;;4892489;28;45121;-81
2023/08/19 12:01:05;;;;;;;2.65;1.85;;;25.40;60.40;;;;;;4876208;28;45178;-82
2023/08/19 12:03:31;;;;;;;1.83;1.73;;;25.40;60.50;;;;;;4864029;28;46924;-82
2023/08/19 12:05:57;;;;;;;1.83;1.73;;;25.40;60.40;;;;;;4874609;28;45309;-83
2023/08/19 12:08:29;;;;;;;2.08;1.98;;;25.40;60.40;;;;;;4874965;28;45514;-81
2023/08/19 12:10:55;;;;;;;1.65;1.55;;;25.40;60.40;;;;;;4873285;28;45335;-81
2023/08/19 12:13:21;;;;;;;2.17;2.00;;;25.40;60.50;;;;;;4879124;28;45625;-81
2023/08/19 12:15:46;;;;;;;2.15;2.05;;;25.40;60.50;;;;;;4862799;28;45680;-84
2023/08/19 12:18:18;;;;;;;2.03;1.92;;;25.40;60.50;;;;;;4878828;28;45084;-81
2023/08/19 12:20:47;;;;;;;2.13;1.92;;;25.40;60.50;;;;;;4879184;28;44872;-83
2023/08/19 12:23:13;;;;;;;1.92;1.83;;;25.40;60.50;;;;;;4866438;28;46900;-83
2023/08/19 12:25:57;;;;;;;2.13;1.98;;;25.40;60.50;;;;;;4892905;28;45581;-85
2023/08/19 12:28:24;;;;;;;1.60;1.50;;;25.50;60.60;;;;;;4880745;28;45103;-86
2023/08/19 12:30:50;;;;;;;1.52;1.42;;;25.40;60.50;;;;;;4857649;28;45096;-88
2023/08/19 12:33:19;;;;;;;2.10;1.90;;;25.50;60.60;;;;;;4896182;28;45589;-83
2023/08/19 12:35:46;;;;;;;1.92;1.83;;;25.50;60.60;;;;;;4875398;28;45044;-82
2023/08/19 12:38:13;;;;;;;2.20;2.00;;;25.40;60.50;;;;;;4867330;28;45387;-83
2023/08/19 12:40:39;;;;;;;2.15;2.00;;;25.50;60.60;;;;;;4857376;28;44845;-84
2023/08/19 12:43:04;;;;;;;2.47;1.70;;;25.40;60.50;;;;;;4877683;28;45276;-83
2023/08/19 12:45:30;;;;;;;2.25;1.90;;;25.40;60.50;;;;;;4856307;28;45673;-83
2023/08/19 12:47:55;;;;;;;2.10;1.90;;;25.40;60.50;;;;;;4887525;28;44978;-82
2023/08/19 12:50:23;;;;;;;1.73;1.63;;;25.40;60.50;;;;;;4861992;28;46269;-83
2023/08/19 12:52:49;;;;;;;2.03;1.83;;;25.40;60.60;;;;;;4881013;28;45787;-83
2023/08/19 12:55:18;;;;;;;1.90;1.80;;;25.50;60.60;;;;;;4859382;28;45409;-83
2023/08/19 12:57:47;;;;;;;1.80;1.70;;;25.50;60.60;;;;;;4880359;28;45155;-80
2023/08/19 13:00:16;;;;;;;1.88;1.77;;;25.50;60.60;;;;;;4869888;28;44942;-88
2023/08/19 13:02:41;;;;;;;1.80;1.70;;;25.50;60.60;;;;;;4873809;28;45937;-82
2023/08/19 13:05:07;;;;;;;2.10;1.90;;;25.50;60.60;;;;;;4875367;28;44943;-86
2023/08/19 13:07:33;;;;;;;1.85;1.75;;;25.50;61.30;;;;;;4878400;28;45096;-83
2023/08/19 13:09:59;;;;;;;2.28;1.98;;;25.50;60.60;;;;;;4866116;28;45262;-82
2023/08/19 13:12:26;;;;;;;1.83;1.70;;;25.50;60.60;;;;;;4862811;29;47056;-83
2023/08/19 13:14:51;;;;;;;1.90;1.80;;;25.50;60.60;;;;;;4878129;28;44988;-81
2023/08/19 13:17:17;;;;;;;1.63;1.52;;;25.50;60.60;;;;;;4887725;28;45278;-85
2023/08/19 13:19:42;;;;;;;1.88;1.75;;;25.50;60.60;;;;;;4881941;28;44770;-82
2023/08/19 13:22:08;;;;;;;1.83;1.67;;;25.50;60.60;;;;;;4884989;28;45014;-81
2023/08/19 13:24:34;;;;;;;1.77;1.67;;;25.40;60.60;;;;;;4871016;28;45070;-80
2023/08/19 13:26:59;;;;;;;1.65;1.55;;;25.50;60.60;;;;;;4895210;28;45230;-83
2023/08/19 13:29:25;;;;;;;1.67;1.55;;;25.50;60.60;;;;;;4896778;28;44718;-83
2023/08/19 13:31:50;;;;;;;1.67;1.58;;;25.50;60.60;;;;;;4878879;28;45640;-85
2023/08/19 13:34:16;;;;;;;1.60;1.42;;;25.50;60.60;;;;;;4851454;28;45769;-83
2023/08/19 13:36:41;;;;;;;1.65;1.55;;;25.50;60.60;;;;;;4867449;28;45298;-83
2023/08/19 13:39:07;;;;;;;2.20;1.90;;;25.50;60.70;;;;;;4867530;28;44982;-83
2023/08/19 13:41:32;;;;;;;2.03;1.80;;;25.50;60.60;;;;;;4881774;28;47113;-82
2023/08/19 13:43:58;;;;;;;1.60;1.50;;;25.50;61.40;;;;;;4884208;28;44759;-83
2023/08/19 13:46:24;;;;;;;1.80;1.70;;;25.50;60.60;;;;;;4880974;28;45158;-85
2023/08/19 13:48:50;;;;;;;2.00;1.80;;;25.50;60.60;;;;;;4869316;28;45740;-83
2023/08/19 13:51:18;;;;;;;1.83;1.70;;;25.50;60.60;;;;;;4878991;28;46426;-85
2023/08/19 13:53:44;;;;;;;1.90;1.70;;;25.40;60.60;;;;;;4871886;28;45407;-82
2023/08/19 13:56:10;;;;;;;1.50;1.40;;;25.50;60.60;;;;;;4887682;28;44749;-82
2023/08/19 13:58:36;;;;;;;2.00;1.83;;;25.50;60.60;;;;;;4874463;28;45173;-81
2023/08/19 14:01:02;;;;;;;1.70;1.60;;;25.40;60.60;;;;;;4879660;28;46904;-83
2023/08/19 14:03:28;;;;;;;1.65;1.55;;;25.50;60.60;;;;;;4877271;28;45036;-82
2023/08/19 14:05:53;;;;;;;1.98;1.80;;;25.50;60.70;;;;;;4885957;28;45065;-83
2023/08/19 14:08:19;;;;;;;2.10;1.85;;;25.50;60.70;;;;;;4867282;28;45111;-83
2023/08/19 14:10:45;;;;;;;1.92;1.83;;;25.50;60.80;;;;;;4870613;28;46958;-85
2023/08/19 14:13:11;;;;;;;2.40;1.80;;;25.50;60.70;;;;;;4878181;29;45018;-81
2023/08/19 14:15:36;;;;;;;2.20;1.90;;;25.50;60.70;;;;;;4869437;29;44896;-85
2023/08/19 14:18:02;;;;;;;1.55;1.45;;;25.50;60.70;;;;;;4876594;28;45096;-82
2023/08/19 14:20:28;;;;;;;1.77;1.67;;;25.50;61.40;;;;;;4856259;28;47092;-86
2023/08/19 14:22:53;;;;;;;2.13;1.63;;;25.50;60.70;;;;;;4879437;28;45198;-83
2023/08/19 14:25:19;;;;;;;1.60;1.50;;;25.50;60.70;;;;;;4898661;28;44841;-82
2023/08/19 14:27:45;;;;;;;1.65;1.55;;;25.50;60.70;;;;;;4845209;28;45020;-81
2023/08/19 14:30:11;;;;;;;1.73;1.63;;;25.50;60.70;;;;;;4872666;28;45362;-86
2023/08/19 14:32:36;;;;;;;1.88;1.58;;;25.50;60.70;;;;;;4877232;28;44942;-83
2023/08/19 14:35:03;;;;;;;1.75;1.65;;;25.50;60.70;;;;;;4873006;28;45102;-89
2023/08/19 14:37:29;;;;;;;1.70;1.60;;;25.50;60.70;;;;;;4872074;28;45373;-82
2023/08/19 14:39:55;;;;;;;2.97;1.83;;;25.50;60.70;;;;;;4884018;28;45021;-83
2023/08/19 14:42:21;;;;;;;2.13;1.70;;;25.50;60.80;;;;;;4874322;28;44957;-82
2023/08/19 14:44:47;;;;;;;1.90;1.80;;;25.50;60.80;;;;;;4866353;28;45115;-86
2023/08/19 14:47:13;;;;;;;1.48;1.38;;;25.50;60.80;;;;;;4877042;28;45195;-83
2023/08/19 14:49:39;;;;;;;1.70;1.60;;;25.50;60.80;;;;;;4872520;28;45514;-85
2023/08/19 14:52:05;;;;;;;1.67;1.58;;;25.50;60.80;;;;;;4889659;28;45019;-81
2023/08/19 14:54:31;;;;;;;2.20;1.73;;;25.50;60.80;;;;;;4885144;28;45659;-84
2023/08/19 14:56:57;;;;;;;1.67;1.55;;;25.50;60.90;;;;;;4887215;28;45203;-82
2023/08/19 14:59:22;;;;;;;1.95;1.75;;;25.50;60.80;;;;;;4865493;28;46848;-85
2023/08/19 15:01:48;;;;;;;2.20;2.00;;;25.50;60.80;;;;;;4858354;28;45311;-81
2023/08/19 15:04:13;;;;;;;1.60;1.50;;;25.50;60.90;;;;;;4860397;28;45098;-82
2023/08/19 15:06:39;;;;;;;1.98;1.77;;;25.50;60.80;;;;;;4886156;28;44832;-83
2023/08/19 15:09:06;;;;;;;1.67;1.58;;;25.50;60.80;;;;;;4877610;28;45482;-82
2023/08/19 15:11:39;;;;;;;1.85;1.75;;;25.50;60.80;;;;;;4884967;28;44941;-84
2023/08/19 15:14:06;;;;;;;1.70;1.58;;;25.50;60.90;;;;;;4860526;28;44869;-82
2023/08/19 15:16:32;;;;;;;1.95;1.73;;;25.50;60.80;;;;;;4874048;28;45083;-82
2023/08/19 15:18:58;;;;;;;2.05;1.42;;;25.50;60.80;;;;;;4887773;28;45275;-81
2023/08/19 15:21:23;;;;;;;1.48;1.38;;;25.50;60.80;;;;;;4877799;28;45216;-83
2023/08/19 15:23:49;;;;;;;1.63;1.52;;;25.50;60.80;;;;;;4881134;28;44846;-83
2023/08/19 15:26:14;;;;;;;1.73;1.63;;;25.50;60.80;;;;;;4884739;28;44966;-82
2023/08/19 15:28:41;;;;;;;1.70;1.60;;;25.50;60.80;;;;;;4863672;28;45173;-81
2023/08/19 15:31:06;;;;;;;3.45;1.67;;;25.50;60.80;;;;;;4877451;28;45113;-82
2023/08/19 15:33:32;;;;;;;2.20;1.88;;;25.50;60.80;;;;;;4861143;28;44842;-81
2023/08/19 15:35:57;;;;;;;1.77;1.67;;;25.50;60.80;;;;;;4890588;28;44974;-84
2023/08/19 15:38:23;;;;;;;2.17;1.73;;;25.50;60.80;;;;;;4880832;28;46080;-83
2023/08/19 15:40:48;;;;;;;1.70;1.60;;;25.50;60.80;;;;;;4880893;28;45700;-83
2023/08/19 15:43:14;;;;;;;3.78;1.60;;;25.50;60.80;;;;;;4898321;28;44993;-82
2023/08/19 15:45:42;;;;;;;1.58;1.48;;;25.50;60.80;;;;;;4892983;28;45230;-83
2023/08/19 15:48:08;;;;;;;1.63;1.52;;;25.50;60.80;;;;;;4885921;28;47220;-82